Time;durP1;ratioP1;P1;durP2;ratioP2;P2;SDS_P1;SDS_P2;PMS_P1;PMS_P2;Temp;Humidity;BMP_temperature;BMP_pressure;BME280_temperature;BME280_humidity;BME280_pressure;Samples;Min_cycle;Max_cycle;Signal;HPM_P1;HPM_P2
2022/11/25 00:01:05;;;;;;;20.95;6.90;;;8.40;81.30;;;;;;5020661;28;20400;-75
2022/11/25 00:03:30;;;;;;;25.67;6.97;;;8.40;82.10;;;;;;5019957;28;20459;-77
2022/11/25 00:05:56;;;;;;;22.67;6.70;;;8.40;83.20;;;;;;5020282;28;20852;-76
2022/11/25 00:08:21;;;;;;;22.83;5.93;;;8.40;83.20;;;;;;5019484;28;20388;-77
2022/11/25 00:10:47;;;;;;;22.33;6.63;;;8.40;83.00;;;;;;5026831;28;20391;-74
2022/11/25 00:13:12;;;;;;;20.55;6.10;;;8.50;82.10;;;;;;5023931;28;20400;-75
2022/11/25 00:15:38;;;;;;;22.30;5.15;;;8.50;80.30;;;;;;5018114;28;20504;-76
2022/11/25 00:18:03;;;;;;;17.90;5.28;;;8.50;78.90;;;;;;5017864;28;20482;-76
2022/11/25 00:20:29;;;;;;;21.65;5.45;;;8.70;77.90;;;;;;5016978;28;20381;-74
2022/11/25 00:22:54;;;;;;;20.05;5.93;;;8.70;77.40;;;;;;5018726;28;21000;-74
2022/11/25 00:25:20;;;;;;;25.60;7.35;;;8.70;76.40;;;;;;5019622;28;20411;-76
2022/11/25 00:27:45;;;;;;;21.93;7.80;;;8.80;77.50;;;;;;5016306;28;20397;-75
2022/11/25 00:30:11;;;;;;;23.43;6.07;;;8.80;79.90;;;;;;5016879;28;20419;-76
2022/11/25 00:32:37;;;;;;;19.27;6.10;;;8.80;75.80;;;;;;5019063;28;20389;-75
2022/11/25 00:35:03;;;;;;;21.15;5.78;;;8.80;76.10;;;;;;5018879;28;20415;-76
2022/11/25 00:37:30;;;;;;;23.75;5.90;;;8.80;77.10;;;;;;5019446;28;20415;-76
2022/11/25 00:39:56;;;;;;;14.98;5.53;;;8.70;76.80;;;;;;5019826;28;20463;-76
2022/11/25 00:45:06;;;;;;;27.15;5.97;;;8.70;76.80;;;;;;5020252;28;20439;-75
2022/11/25 00:47:32;;;;;;;21.23;5.40;;;8.60;79.60;;;;;;5019428;28;20396;-76
2022/11/25 00:49:57;;;;;;;16.35;5.82;;;8.60;79.80;;;;;;5020773;28;20484;-74
2022/11/25 00:52:25;;;;;;;19.65;6.20;;;8.60;80.00;;;;;;5026230;28;20448;-74
2022/11/25 00:54:51;;;;;;;22.55;6.70;;;8.60;80.00;;;;;;5034088;28;20424;-74
2022/11/25 00:57:19;;;;;;;27.23;7.33;;;8.60;81.10;;;;;;5025747;28;20417;-75
2022/11/25 00:59:45;;;;;;;26.50;5.60;;;8.60;82.20;;;;;;5025449;28;20392;-75
2022/11/25 01:02:12;;;;;;;21.73;6.13;;;8.60;81.90;;;;;;5022145;28;20385;-76
2022/11/25 01:04:38;;;;;;;16.40;5.80;;;8.60;82.30;;;;;;5020332;28;20384;-75
2022/11/25 01:07:04;;;;;;;22.70;6.18;;;8.50;81.60;;;;;;5019767;28;20471;-76
2022/11/25 01:09:30;;;;;;;18.80;6.10;;;8.40;82.10;;;;;;5021459;28;20388;-76
2022/11/25 01:11:56;;;;;;;17.80;5.43;;;8.40;83.00;;;;;;5020081;28;20447;-76
2022/11/25 01:14:23;;;;;;;26.88;6.65;;;8.40;83.20;;;;;;5023574;28;20809;-75
2022/11/25 01:16:49;;;;;;;21.20;5.10;;;8.40;83.90;;;;;;5023302;28;20412;-75
2022/11/25 01:19:15;;;;;;;21.38;6.00;;;8.50;84.30;;;;;;5020881;28;20451;-76
2022/11/25 01:21:41;;;;;;;17.08;6.10;;;8.60;81.10;;;;;;5022618;28;20408;-75
2022/11/25 01:24:07;;;;;;;20.63;7.30;;;8.70;81.10;;;;;;5021176;28;20415;-75
2022/11/25 01:26:35;;;;;;;20.13;5.65;;;8.80;79.70;;;;;;5018522;28;20432;-76
2022/11/25 01:29:05;;;;;;;22.10;5.70;;;8.80;79.80;;;;;;5019361;28;20399;-77
2022/11/25 01:31:34;;;;;;;21.92;6.28;;;8.90;79.60;;;;;;5018174;28;20384;-76
2022/11/25 01:34:06;;;;;;;17.48;5.63;;;9.00;76.90;;;;;;5022390;28;20410;-76
2022/11/25 01:36:32;;;;;;;16.48;5.43;;;9.00;77.00;;;;;;5024569;28;20400;-76
2022/11/25 01:38:59;;;;;;;19.85;5.00;;;9.10;78.90;;;;;;5024789;28;20856;-76
2022/11/25 01:41:27;;;;;;;18.42;5.00;;;9.10;77.20;;;;;;5024114;28;20403;-76
2022/11/25 01:44:24;;;;;;;22.70;6.35;;;9.00;76.30;;;;;;5025387;28;20388;-76
2022/11/25 01:46:59;;;;;;;16.83;5.50;;;9.30;74.90;;;;;;5011627;28;20415;-76
2022/11/25 01:49:34;;;;;;;22.67;5.47;;;9.20;74.40;;;;;;5025924;28;20385;-76
2022/11/25 01:52:28;;;;;;;25.58;6.68;;;9.20;74.40;;;;;;5022878;28;20401;-76
2022/11/25 01:55:16;;;;;;;18.65;5.63;;;9.20;75.40;;;;;;5025614;28;20393;-76
2022/11/25 01:58:01;;;;;;;16.40;5.80;;;9.30;75.60;;;;;;5025029;28;20431;-76
2022/11/25 02:00:27;;;;;;;26.98;5.90;;;9.30;74.20;;;;;;5025293;28;20385;-75
2022/11/25 02:02:54;;;;;;;19.63;5.65;;;9.40;75.20;;;;;;5023980;28;20397;-76
2022/11/25 02:05:25;;;;;;;19.10;6.00;;;9.30;76.10;;;;;;5024767;28;20556;-76
2022/11/25 02:07:52;;;;;;;21.08;5.30;;;9.40;75.40;;;;;;5025022;28;20389;-77
2022/11/25 02:10:37;;;;;;;15.57;5.27;;;9.40;75.00;;;;;;5023484;28;20397;-77
2022/11/25 02:13:03;;;;;;;16.15;4.80;;;9.40;75.00;;;;;;5022636;28;20388;-77
2022/11/25 02:15:32;;;;;;;23.33;5.60;;;9.50;74.70;;;;;;5020789;28;20385;-76
2022/11/25 02:17:57;;;;;;;20.60;4.95;;;9.40;74.80;;;;;;5024165;28;20389;-75
2022/11/25 02:20:24;;;;;;;19.52;4.78;;;9.50;75.30;;;;;;5022656;28;20746;-76
2022/11/25 02:23:17;;;;;;;20.58;5.50;;;9.50;73.80;;;;;;5021977;28;20464;-77
2022/11/25 02:25:43;;;;;;;19.70;6.40;;;9.50;73.50;;;;;;5022419;28;20385;-76
2022/11/25 02:28:12;;;;;;;17.20;6.20;;;9.50;75.00;;;;;;5024006;28;20475;-77
2022/11/25 02:30:38;;;;;;;20.17;5.80;;;9.60;75.10;;;;;;5022787;28;20397;-76
2022/11/25 02:33:04;;;;;;;17.75;5.38;;;9.60;75.30;;;;;;5025181;28;20808;-76
2022/11/25 02:35:39;;;;;;;21.52;5.82;;;9.60;74.70;;;;;;5025280;28;20912;-76
2022/11/25 02:38:17;;;;;;;18.05;5.30;;;9.60;75.60;;;;;;5023427;28;20396;-75
2022/11/25 02:40:51;;;;;;;17.98;5.85;;;9.60;74.10;;;;;;5020107;28;20542;-78
2022/11/25 02:43:17;;;;;;;15.73;4.90;;;9.60;74.00;;;;;;5023325;28;20769;-76
2022/11/25 02:46:00;;;;;;;16.80;5.30;;;9.60;73.40;;;;;;5021271;28;20397;-75
2022/11/25 02:48:28;;;;;;;18.20;5.53;;;9.70;73.50;;;;;;5030482;23;20507;-75
2022/11/25 02:50:53;;;;;;;20.17;5.05;;;9.80;73.00;;;;;;5015032;28;20400;-75
2022/11/25 02:53:20;;;;;;;16.60;4.95;;;9.80;72.60;;;;;;5015531;28;20381;-75
2022/11/25 02:55:46;;;;;;;17.40;5.27;;;9.90;72.30;;;;;;5013267;28;20466;-75
2022/11/25 02:58:12;;;;;;;20.10;6.00;;;9.90;72.20;;;;;;5013863;28;20381;-74
2022/11/25 03:00:37;;;;;;;17.45;4.60;;;9.90;73.80;;;;;;5013638;28;20436;-75
2022/11/25 03:03:03;;;;;;;21.63;5.37;;;9.90;71.10;;;;;;5012223;28;20388;-74
2022/11/25 03:05:28;;;;;;;19.27;5.35;;;10.00;71.50;;;;;;5013468;28;20472;-75
2022/11/25 03:07:54;;;;;;;16.90;5.50;;;9.90;71.40;;;;;;5013228;28;20791;-75
2022/11/25 03:10:20;;;;;;;12.33;5.30;;;9.90;71.90;;;;;;5013237;28;20424;-74
2022/11/25 03:12:46;;;;;;;20.85;5.45;;;10.00;70.50;;;;;;5013251;28;20459;-75
2022/11/25 03:15:11;;;;;;;14.63;5.28;;;10.00;69.80;;;;;;5013912;28;20914;-75
2022/11/25 03:17:37;;;;;;;18.10;6.27;;;10.00;69.50;;;;;;5013091;28;20404;-74
2022/11/25 03:20:04;;;;;;;14.37;5.00;;;10.00;70.50;;;;;;5013636;28;20412;-75
2022/11/25 03:22:30;;;;;;;13.77;5.40;;;10.00;70.40;;;;;;5012913;28;20456;-74
2022/11/25 03:24:56;;;;;;;15.20;4.90;;;10.10;69.90;;;;;;5012726;28;20464;-75
2022/11/25 03:27:21;;;;;;;17.10;5.35;;;10.10;69.60;;;;;;5011568;28;20408;-74
2022/11/25 03:29:47;;;;;;;19.50;6.10;;;10.00;70.70;;;;;;5012865;28;20400;-73
2022/11/25 03:32:12;;;;;;;18.30;5.30;;;10.10;70.70;;;;;;5012793;28;20385;-74
2022/11/25 03:34:38;;;;;;;17.63;5.30;;;10.10;70.00;;;;;;5012775;28;20430;-75
2022/11/25 03:37:03;;;;;;;33.13;6.30;;;10.10;70.20;;;;;;5012861;28;20443;-74
2022/11/25 03:39:29;;;;;;;19.57;5.27;;;10.10;68.20;;;;;;5012889;28;20392;-75
2022/11/25 03:41:54;;;;;;;14.73;4.20;;;10.10;70.40;;;;;;5012331;28;20853;-75
2022/11/25 03:44:20;;;;;;;16.43;4.60;;;10.00;68.40;;;;;;5012206;28;20615;-74
2022/11/25 03:46:45;;;;;;;16.55;4.90;;;10.10;68.60;;;;;;5012138;28;20385;-74
2022/11/25 03:49:11;;;;;;;20.58;6.03;;;10.20;67.90;;;;;;5010634;28;20479;-75
2022/11/25 03:51:36;;;;;;;18.63;5.50;;;10.20;68.40;;;;;;5011786;28;20392;-75
2022/11/25 03:54:02;;;;;;;13.83;4.63;;;10.20;68.40;;;;;;5011800;28;20401;-73
2022/11/25 03:56:28;;;;;;;21.80;5.40;;;10.20;68.00;;;;;;5012035;28;20437;-75
2022/11/25 03:58:53;;;;;;;27.03;6.33;;;10.20;68.80;;;;;;5012008;28;20799;-75
2022/11/25 04:01:19;;;;;;;17.63;5.60;;;10.20;69.00;;;;;;5011984;28;20387;-74
2022/11/25 04:03:44;;;;;;;19.37;5.40;;;10.20;70.00;;;;;;5012298;28;20388;-75
2022/11/25 04:06:10;;;;;;;14.30;4.80;;;10.20;71.60;;;;;;5011962;28;20389;-74
2022/11/25 04:08:35;;;;;;;18.92;5.50;;;10.10;72.40;;;;;;5011758;28;20423;-74
2022/11/25 04:11:01;;;;;;;13.35;4.85;;;10.00;74.90;;;;;;5011354;28;20385;-74
2022/11/25 04:13:28;;;;;;;20.50;5.07;;;10.10;75.80;;;;;;5011976;28;20388;-74
2022/11/25 04:15:53;;;;;;;21.87;5.23;;;10.00;76.20;;;;;;5011774;28;20412;-74
2022/11/25 04:18:19;;;;;;;20.10;5.70;;;10.00;78.30;;;;;;5011875;28;20813;-74
2022/11/25 04:20:45;;;;;;;20.90;4.65;;;10.10;78.30;;;;;;5012069;28;20873;-73
2022/11/25 04:23:12;;;;;;;20.25;5.90;;;10.00;78.40;;;;;;5011627;28;20480;-74
2022/11/25 04:25:38;;;;;;;18.25;5.47;;;9.90;79.70;;;;;;5011804;28;20475;-75
2022/11/25 04:28:04;;;;;;;16.33;4.85;;;9.90;79.40;;;;;;5011814;28;20877;-74
2022/11/25 04:30:29;;;;;;;17.17;5.10;;;10.00;80.20;;;;;;5011672;28;20399;-73
2022/11/25 04:32:55;;;;;;;21.90;6.40;;;9.90;80.60;;;;;;5011522;28;20389;-73
2022/11/25 04:35:21;;;;;;;22.52;5.65;;;9.90;81.30;;;;;;5011872;28;20389;-75
2022/11/25 04:37:46;;;;;;;17.83;5.13;;;9.90;81.20;;;;;;5011965;28;20385;-75
2022/11/25 04:40:13;;;;;;;18.87;5.10;;;10.00;80.60;;;;;;5011926;28;20408;-74
2022/11/25 04:42:38;;;;;;;17.77;4.95;;;10.00;79.90;;;;;;5011811;28;20403;-74
2022/11/25 04:45:14;;;;;;;20.23;5.68;;;10.00;79.70;;;;;;5011900;28;20393;-74
2022/11/25 04:47:40;;;;;;;20.63;5.20;;;10.00;80.50;;;;;;5011999;28;20396;-75
2022/11/25 04:50:08;;;;;;;20.67;5.78;;;10.00;82.50;;;;;;5011877;28;20944;-75
2022/11/25 04:52:34;;;;;;;22.52;5.60;;;10.00;80.40;;;;;;5012092;28;20393;-74
2022/11/25 04:54:59;;;;;;;24.25;5.63;;;10.00;79.70;;;;;;5012539;28;20389;-74
2022/11/25 04:57:25;;;;;;;17.65;5.65;;;9.90;79.80;;;;;;5012770;28;20418;-74
2022/11/25 04:59:50;;;;;;;21.50;4.87;;;9.90;80.00;;;;;;5012307;28;20412;-75
2022/11/25 05:02:21;;;;;;;15.60;5.37;;;9.90;81.80;;;;;;5011869;28;20928;-74
2022/11/25 05:04:50;;;;;;;25.83;5.97;;;10.00;82.20;;;;;;5011967;28;20385;-75
2022/11/25 05:07:17;;;;;;;19.27;5.40;;;10.00;83.50;;;;;;5011490;28;20816;-74
2022/11/25 05:09:43;;;;;;;18.92;5.88;;;9.90;84.50;;;;;;5014403;28;20392;-73
2022/11/25 05:12:12;;;;;;;23.50;6.10;;;9.80;86.50;;;;;;5015636;28;20806;-74
2022/11/25 05:14:38;;;;;;;21.83;5.65;;;9.80;87.60;;;;;;5016081;28;20439;-74
2022/11/25 05:17:05;;;;;;;19.13;6.15;;;9.80;86.50;;;;;;5017605;28;20440;-75
2022/11/25 05:19:30;;;;;;;20.75;5.97;;;9.80;88.20;;;;;;5017084;28;20393;-74
2022/11/25 05:21:56;;;;;;;20.80;5.60;;;9.80;90.30;;;;;;5014840;28;20399;-75
2022/11/25 05:24:23;;;;;;;23.20;5.97;;;9.80;91.10;;;;;;5016330;28;20385;-75
2022/11/25 05:26:49;;;;;;;21.20;6.20;;;9.70;93.40;;;;;;5017078;28;20428;-75
2022/11/25 05:29:14;;;;;;;23.73;6.10;;;9.80;94.30;;;;;;5017286;28;20450;-74
2022/11/25 05:31:40;;;;;;;19.00;6.37;;;9.70;94.80;;;;;;5016594;28;20410;-74
2022/11/25 05:34:05;;;;;;;24.33;6.30;;;9.70;96.70;;;;;;5016219;28;20400;-74
2022/11/25 05:36:31;;;;;;;23.77;7.10;;;9.70;98.50;;;;;;5016271;28;20405;-75
2022/11/25 05:38:57;;;;;;;20.77;6.50;;;9.70;98.60;;;;;;5015939;28;20757;-75
2022/11/25 05:41:23;;;;;;;23.17;6.65;;;9.70;99.70;;;;;;5016703;28;20468;-75
2022/11/25 05:43:49;;;;;;;21.48;6.38;;;9.60;99.90;;;;;;5017025;28;20384;-74
2022/11/25 05:46:14;;;;;;;20.17;6.80;;;9.60;99.90;;;;;;5017293;28;20789;-75
2022/11/25 05:48:40;;;;;;;24.45;6.85;;;9.50;99.90;;;;;;5015961;28;20412;-75
2022/11/25 05:51:07;;;;;;;26.17;6.50;;;9.50;99.90;;;;;;5015395;28;20393;-75
2022/11/25 05:53:33;;;;;;;22.80;6.88;;;9.50;99.90;;;;;;5017357;28;20381;-74
2022/11/25 05:56:01;;;;;;;17.97;6.20;;;9.60;99.90;;;;;;5018191;28;20494;-74
2022/11/25 05:58:28;;;;;;;19.10;6.50;;;9.50;99.90;;;;;;5032460;28;20377;-75
2022/11/25 06:00:54;;;;;;;20.92;6.75;;;9.60;99.90;;;;;;5032875;28;20766;-74
2022/11/25 06:03:23;;;;;;;29.23;7.38;;;9.50;99.90;;;;;;5033063;28;20419;-74
2022/11/25 06:05:49;;;;;;;21.35;7.82;;;9.50;99.90;;;;;;5020466;28;20383;-74
2022/11/25 06:08:15;;;;;;;21.92;7.05;;;9.50;99.90;;;;;;5014529;28;20389;-73
2022/11/25 06:10:40;;;;;;;22.35;7.13;;;9.50;99.90;;;;;;5015044;28;20400;-75
2022/11/25 06:13:07;;;;;;;24.50;6.88;;;9.50;99.90;;;;;;5014129;28;20389;-74
2022/11/25 06:15:33;;;;;;;19.40;6.32;;;9.50;99.90;;;;;;5014538;28;20392;-74
2022/11/25 06:17:58;;;;;;;24.23;7.30;;;9.40;99.90;;;;;;5020229;28;20411;-74
2022/11/25 06:20:25;;;;;;;20.02;6.95;;;9.40;99.90;;;;;;5022225;28;20399;-75
2022/11/25 06:22:51;;;;;;;22.10;7.40;;;9.40;99.90;;;;;;5023610;28;20395;-75
2022/11/25 06:25:17;;;;;;;23.40;7.40;;;9.40;99.90;;;;;;5020875;28;20389;-75
2022/11/25 06:27:42;;;;;;;18.47;7.50;;;9.40;99.90;;;;;;5015668;28;20393;-75
2022/11/25 06:30:08;;;;;;;22.63;8.20;;;9.30;99.90;;;;;;5014432;28;20762;-74
2022/11/25 06:32:34;;;;;;;24.95;7.65;;;9.40;99.90;;;;;;5013907;28;20817;-75
2022/11/25 06:34:59;;;;;;;27.73;8.50;;;9.40;99.90;;;;;;5014159;28;20385;-74
2022/11/25 06:37:25;;;;;;;30.50;9.00;;;9.40;99.90;;;;;;5015026;28;21123;-75
2022/11/25 06:39:51;;;;;;;22.80;7.53;;;9.40;99.90;;;;;;5017351;28;20381;-76
2022/11/25 06:42:16;;;;;;;21.67;7.70;;;9.30;99.90;;;;;;5016833;28;20929;-76
2022/11/25 06:44:42;;;;;;;24.23;7.88;;;9.30;99.90;;;;;;5031801;28;20439;-75
2022/11/25 06:47:07;;;;;;;25.97;7.80;;;9.40;99.90;;;;;;5014791;28;20984;-74
2022/11/25 06:49:33;;;;;;;23.50;7.97;;;9.40;99.90;;;;;;5015991;28;20454;-74
2022/11/25 06:51:59;;;;;;;23.87;7.90;;;9.40;99.90;;;;;;5013341;28;20416;-75
2022/11/25 06:54:24;;;;;;;25.50;7.70;;;9.30;99.90;;;;;;5017791;28;20389;-74
2022/11/25 06:56:52;;;;;;;25.80;8.20;;;9.30;99.90;;;;;;5013766;28;20404;-75
2022/11/25 06:59:21;;;;;;;23.73;8.00;;;9.30;99.90;;;;;;5014436;28;20472;-75
2022/11/25 07:01:47;;;;;;;22.08;7.35;;;9.30;99.90;;;;;;5013913;28;20444;-75
2022/11/25 07:04:12;;;;;;;20.02;7.78;;;9.30;99.90;;;;;;5013014;28;20466;-75
2022/11/25 07:06:38;;;;;;;28.02;7.97;;;9.30;99.90;;;;;;5015424;28;20395;-75
2022/11/25 07:09:04;;;;;;;25.95;8.20;;;9.40;99.90;;;;;;5015507;28;20487;-75
2022/11/25 07:11:35;;;;;;;21.10;7.45;;;9.40;99.90;;;;;;5024541;28;20484;-75
2022/11/25 07:14:06;;;;;;;22.48;7.55;;;9.30;99.90;;;;;;5018390;28;20745;-74
2022/11/25 07:16:32;;;;;;;26.65;8.48;;;9.30;99.90;;;;;;5021917;28;20439;-75
2022/11/25 07:19:00;;;;;;;22.63;7.67;;;9.20;99.90;;;;;;5016258;28;20488;-75
2022/11/25 07:21:27;;;;;;;23.25;8.07;;;9.10;99.90;;;;;;5014262;28;20487;-75
2022/11/25 07:23:52;;;;;;;25.33;8.73;;;9.00;99.90;;;;;;5014821;28;20436;-75
2022/11/25 07:26:23;;;;;;;22.10;7.47;;;9.00;99.90;;;;;;5018909;28;20412;-75
2022/11/25 07:28:50;;;;;;;23.55;8.15;;;9.00;99.90;;;;;;5013267;28;20401;-75
2022/11/25 07:31:20;;;;;;;25.92;8.40;;;9.00;99.90;;;;;;5013428;28;20452;-75
2022/11/25 07:33:46;;;;;;;26.08;9.00;;;9.00;99.90;;;;;;5015734;28;20393;-75
2022/11/25 07:36:13;;;;;;;24.60;9.00;;;8.80;99.90;;;;;;5014035;28;20432;-74
2022/11/25 07:38:39;;;;;;;28.75;7.95;;;8.80;99.90;;;;;;5013721;28;20385;-76
2022/11/25 07:41:11;;;;;;;24.13;8.25;;;8.70;99.90;;;;;;5013187;28;20435;-75
2022/11/25 07:43:36;;;;;;;22.55;8.50;;;8.60;99.90;;;;;;5013955;28;20386;-75
2022/11/25 07:46:15;;;;;;;28.33;8.40;;;8.60;99.90;;;;;;5013680;28;20453;-77
2022/11/25 07:48:41;;;;;;;23.50;8.38;;;8.60;99.90;;;;;;4999903;28;20410;-75
2022/11/25 07:51:24;;;;;;;29.00;9.75;;;8.70;99.90;;;;;;5002417;28;20767;-76
2022/11/25 07:53:51;;;;;;;24.73;8.77;;;8.80;99.90;;;;;;5004034;28;20424;-75
2022/11/25 07:56:17;;;;;;;27.13;9.60;;;8.80;99.90;;;;;;5021114;28;20777;-74
2022/11/25 07:58:43;;;;;;;26.43;9.60;;;8.90;99.90;;;;;;5022820;28;20433;-75
2022/11/25 08:01:10;;;;;;;26.50;9.40;;;9.00;99.90;;;;;;5018570;28;20473;-74
2022/11/25 08:03:37;;;;;;;28.05;8.10;;;9.00;99.90;;;;;;5019501;28;20393;-75
2022/11/25 08:06:09;;;;;;;28.33;9.07;;;9.10;99.90;;;;;;5022671;28;20793;-75
2022/11/25 08:08:36;;;;;;;24.75;8.85;;;9.10;99.90;;;;;;5023866;28;20411;-75
2022/11/25 08:11:06;;;;;;;27.13;9.30;;;9.20;99.90;;;;;;5020303;28;20488;-74
2022/11/25 08:13:32;;;;;;;25.90;8.80;;;9.30;99.90;;;;;;5023660;28;20403;-75
2022/11/25 08:15:59;;;;;;;28.85;9.10;;;9.40;99.90;;;;;;5022117;28;20408;-74
2022/11/25 08:18:24;;;;;;;25.23;8.05;;;9.40;99.90;;;;;;5018217;28;20774;-75
2022/11/25 08:20:50;;;;;;;22.58;8.48;;;9.40;99.90;;;;;;5011788;28;20397;-75
2022/11/25 08:23:16;;;;;;;17.83;8.18;;;9.40;99.90;;;;;;5012807;28;20396;-75
2022/11/25 08:25:42;;;;;;;21.95;8.60;;;9.30;99.90;;;;;;5012664;28;20389;-74
2022/11/25 08:28:08;;;;;;;24.60;8.40;;;9.30;99.90;;;;;;5025913;28;20486;-75
2022/11/25 08:30:34;;;;;;;20.65;7.85;;;9.20;99.90;;;;;;5002379;28;20402;-74
2022/11/25 08:33:03;;;;;;;20.75;7.78;;;9.00;99.90;;;;;;5008580;28;20407;-74
2022/11/25 08:35:29;;;;;;;25.15;9.13;;;9.10;99.90;;;;;;5009965;28;20473;-74
2022/11/25 08:37:55;;;;;;;22.48;8.75;;;9.10;99.90;;;;;;5008582;28;20528;-75
2022/11/25 08:40:20;;;;;;;27.70;9.13;;;9.20;99.90;;;;;;5010226;28;20514;-75
2022/11/25 08:42:46;;;;;;;31.20;10.20;;;9.10;99.90;;;;;;5008889;28;20699;-75
2022/11/25 08:45:11;;;;;;;26.90;10.65;;;9.10;99.90;;;;;;5016487;28;20403;-76
2022/11/25 08:47:37;;;;;;;26.33;9.68;;;9.20;99.90;;;;;;5036364;23;20669;-72
2022/11/25 08:50:09;;;;;;;29.27;9.52;;;9.30;99.90;;;;;;5011734;28;20966;-72
2022/11/25 08:52:34;;;;;;;26.02;8.38;;;9.30;99.90;;;;;;5009687;28;20381;-72
2022/11/25 08:55:00;;;;;;;19.70;8.07;;;9.30;99.90;;;;;;5009683;28;20400;-73
2022/11/25 08:57:26;;;;;;;20.77;8.50;;;9.30;99.90;;;;;;5018362;28;20434;-72
2022/11/25 08:59:51;;;;;;;27.58;9.15;;;9.30;99.90;;;;;;5015595;28;20587;-72
2022/11/25 09:02:17;;;;;;;27.23;10.10;;;9.30;99.90;;;;;;5008135;28;20928;-72
2022/11/25 09:04:42;;;;;;;28.15;9.70;;;9.40;99.90;;;;;;5020396;28;20858;-73
2022/11/25 09:07:08;;;;;;;27.30;9.70;;;9.50;99.90;;;;;;5010274;28;20404;-74
2022/11/25 09:09:34;;;;;;;22.83;9.38;;;9.60;99.90;;;;;;5008504;28;20877;-74
2022/11/25 09:11:59;;;;;;;24.35;9.60;;;9.60;99.90;;;;;;5009271;28;20392;-74
2022/11/25 09:14:25;;;;;;;26.27;8.70;;;9.70;99.90;;;;;;5015522;28;20403;-73
2022/11/25 09:16:50;;;;;;;29.63;10.47;;;9.60;99.90;;;;;;5028738;28;20935;-73
2022/11/25 09:19:16;;;;;;;22.07;10.43;;;9.70;99.90;;;;;;5026363;28;20410;-72
2022/11/25 09:21:45;;;;;;;26.47;10.60;;;9.80;99.90;;;;;;5008494;28;20380;-74
2022/11/25 09:24:10;;;;;;;35.78;14.73;;;9.90;99.90;;;;;;5008797;28;20739;-74
2022/11/25 09:26:39;;;;;;;29.03;10.80;;;10.00;99.90;;;;;;5008522;28;20455;-71
2022/11/25 09:29:06;;;;;;;33.80;9.40;;;10.00;99.90;;;;;;5009268;28;20491;-73
2022/11/25 09:31:31;;;;;;;25.15;9.43;;;10.20;99.90;;;;;;5014322;28;20488;-73
2022/11/25 09:33:57;;;;;;;26.00;9.17;;;10.40;99.90;;;;;;5008541;28;20492;-73
2022/11/25 09:36:23;;;;;;;22.53;8.30;;;10.70;99.10;;;;;;5008797;28;20481;-73
2022/11/25 09:38:50;;;;;;;22.20;9.02;;;10.90;93.50;;;;;;5006542;28;20749;-73
2022/11/25 09:48:03;;;;;;;19.13;7.57;;;11.40;80.90;;;;;;5008789;28;20388;-71
2022/11/25 09:50:47;;;;;;;19.02;6.50;;;11.50;79.40;;;;;;5005407;28;20466;-74
2022/11/25 09:53:33;;;;;;;17.33;6.80;;;11.60;76.30;;;;;;5008071;28;20416;-73
2022/11/25 09:56:03;;;;;;;15.75;7.05;;;11.60;75.70;;;;;;5012643;28;20754;-72
2022/11/25 09:58:43;;;;;;;18.90;7.03;;;11.70;74.40;;;;;;5008290;28;20401;-72
2022/11/25 10:01:17;;;;;;;21.88;5.28;;;11.70;73.40;;;;;;5012178;28;20385;-75
2022/11/25 10:03:47;;;;;;;17.55;5.07;;;11.60;71.10;;;;;;5014477;28;20443;-74
2022/11/25 10:06:15;;;;;;;20.67;7.00;;;11.50;69.90;;;;;;5014903;28;20442;-72
2022/11/25 10:08:44;;;;;;;15.40;5.18;;;11.60;69.80;;;;;;5015239;28;20454;-74
2022/11/25 10:11:24;;;;;;;13.23;5.00;;;11.70;69.30;;;;;;5034549;28;20536;-73
2022/11/25 10:14:15;;;;;;;13.40;5.00;;;11.80;65.30;;;;;;5022428;28;20453;-74
2022/11/25 10:16:48;;;;;;;17.48;5.00;;;11.80;67.90;;;;;;5013197;28;20409;-73
2022/11/25 10:19:23;;;;;;;16.15;4.88;;;11.90;67.60;;;;;;5013537;28;20385;-74
2022/11/25 10:21:49;;;;;;;21.50;5.25;;;12.10;66.00;;;;;;5014038;28;20389;-73
2022/11/25 10:24:16;;;;;;;13.02;5.28;;;12.30;62.90;;;;;;5014120;28;20393;-74
2022/11/25 10:26:46;;;;;;;10.30;4.60;;;12.40;61.50;;;;;;5014128;28;20389;-73
2022/11/25 10:29:12;;;;;;;17.88;4.70;;;12.30;61.60;;;;;;5012773;28;20415;-73
2022/11/25 10:31:38;;;;;;;11.93;4.10;;;12.30;60.60;;;;;;5012493;28;20389;-74
2022/11/25 10:34:19;;;;;;;20.05;4.07;;;12.20;61.60;;;;;;5013992;28;20389;-74
2022/11/25 10:36:47;;;;;;;14.75;4.20;;;12.10;62.70;;;;;;5013779;28;20419;-73
2022/11/25 10:39:28;;;;;;;17.80;4.20;;;12.10;61.10;;;;;;5014324;28;20384;-72
2022/11/25 10:42:11;;;;;;;23.50;4.95;;;12.10;61.40;;;;;;5013995;28;20396;-73
2022/11/25 10:44:38;;;;;;;13.60;4.45;;;12.20;60.90;;;;;;5014699;28;20381;-73
2022/11/25 10:47:33;;;;;;;14.07;4.28;;;12.30;58.80;;;;;;5024548;28;20551;-73
2022/11/25 10:50:26;;;;;;;19.83;4.55;;;12.40;56.70;;;;;;5030216;28;20393;-73
2022/11/25 10:52:57;;;;;;;20.80;4.43;;;12.60;55.10;;;;;;5016508;28;20411;-74
2022/11/25 10:55:29;;;;;;;14.65;4.32;;;12.70;56.30;;;;;;5014436;28;20455;-74
2022/11/25 10:57:56;;;;;;;15.80;4.60;;;12.80;55.50;;;;;;5013228;28;20410;-74
2022/11/25 11:00:37;;;;;;;18.90;4.97;;;13.00;54.80;;;;;;5014033;28;20714;-76
2022/11/25 11:03:22;;;;;;;15.83;4.33;;;13.10;54.60;;;;;;5013009;28;20902;-74
2022/11/25 11:05:51;;;;;;;16.58;5.13;;;13.30;51.90;;;;;;5012826;28;20443;-74
2022/11/25 11:08:25;;;;;;;17.80;4.68;;;13.20;52.40;;;;;;5014352;28;20479;-73
2022/11/25 11:11:10;;;;;;;16.38;4.90;;;13.30;51.60;;;;;;5013081;28;20393;-71
2022/11/25 11:13:35;;;;;;;19.90;4.05;;;13.10;50.10;;;;;;5014391;28;20476;-73
2022/11/25 11:16:02;;;;;;;15.10;4.15;;;13.10;51.30;;;;;;5013307;28;20476;-73
2022/11/25 11:18:35;;;;;;;17.95;4.50;;;13.10;49.50;;;;;;5012754;28;20382;-74
2022/11/25 11:21:01;;;;;;;15.20;4.20;;;13.10;50.30;;;;;;5012954;28;20389;-74
2022/11/25 11:23:28;;;;;;;24.00;5.10;;;13.10;48.50;;;;;;5012654;28;20388;-74
2022/11/25 11:26:05;;;;;;;15.98;4.35;;;13.10;50.50;;;;;;5012282;28;20396;-73
2022/11/25 11:28:34;;;;;;;16.67;4.63;;;13.00;52.00;;;;;;5013136;28;20384;-73
2022/11/25 11:31:23;;;;;;;18.95;4.68;;;13.00;50.70;;;;;;5013072;28;20384;-73
2022/11/25 11:33:59;;;;;;;19.30;4.65;;;13.10;50.20;;;;;;5014478;28;20412;-73
2022/11/25 11:36:45;;;;;;;18.38;5.53;;;13.00;48.40;;;;;;5022390;28;20416;-73
2022/11/25 11:39:37;;;;;;;13.48;4.70;;;12.90;50.20;;;;;;5031930;28;20444;-74
2022/11/25 11:42:31;;;;;;;16.50;4.45;;;13.00;49.30;;;;;;5031766;28;20789;-74
2022/11/25 11:45:03;;;;;;;15.88;4.68;;;13.30;50.30;;;;;;5015649;28;20377;-75
2022/11/25 11:48:05;;;;;;;13.75;4.10;;;13.30;48.60;;;;;;5013706;28;20527;-74
2022/11/25 11:50:37;;;;;;;24.15;5.32;;;13.30;48.50;;;;;;5016192;28;20432;-76
2022/11/25 11:53:35;;;;;;;16.85;4.00;;;13.20;47.60;;;;;;5012487;28;20389;-73
2022/11/25 11:56:11;;;;;;;21.95;4.80;;;13.00;49.20;;;;;;5012500;28;20408;-73
2022/11/25 11:58:56;;;;;;;21.15;5.05;;;13.00;47.80;;;;;;5012842;28;20370;-75
2022/11/25 12:01:30;;;;;;;14.45;4.40;;;13.10;49.20;;;;;;5012372;28;20389;-73
2022/11/25 12:03:59;;;;;;;19.45;4.50;;;13.30;48.60;;;;;;5025140;28;20401;-73
2022/11/25 12:06:28;;;;;;;22.63;4.85;;;13.40;46.80;;;;;;5011360;28;20447;-74
2022/11/25 12:09:08;;;;;;;14.48;4.47;;;13.40;46.50;;;;;;5014003;28;20750;-74
2022/11/25 12:11:40;;;;;;;18.60;4.97;;;13.20;47.50;;;;;;5021305;28;20409;-73
2022/11/25 12:14:18;;;;;;;15.40;4.30;;;13.30;47.30;;;;;;5012668;28;20750;-74
2022/11/25 12:16:57;;;;;;;20.87;4.77;;;13.40;45.70;;;;;;5012573;28;20530;-72
2022/11/25 12:20:00;;;;;;;19.42;5.10;;;13.40;47.10;;;;;;5002892;28;20816;-73
2022/11/25 12:22:31;;;;;;;21.73;4.90;;;13.30;46.40;;;;;;4989294;28;20398;-73
2022/11/25 12:25:14;;;;;;;24.15;5.00;;;13.20;46.80;;;;;;5001367;28;20387;-75
2022/11/25 12:28:07;;;;;;;19.50;4.70;;;13.20;46.30;;;;;;5023952;28;21133;-74
2022/11/25 12:30:39;;;;;;;24.35;5.18;;;13.30;45.80;;;;;;5013352;28;20404;-72
2022/11/25 12:33:23;;;;;;;23.60;5.13;;;13.40;44.80;;;;;;5012377;28;20879;-73
2022/11/25 12:36:02;;;;;;;15.43;4.70;;;13.30;43.80;;;;;;5032543;28;21175;-74
2022/11/25 12:38:45;;;;;;;14.57;4.13;;;13.30;42.70;;;;;;5019928;28;20571;-74
2022/11/25 12:41:24;;;;;;;13.43;4.53;;;13.50;44.60;;;;;;5011388;28;20397;-73
2022/11/25 12:43:59;;;;;;;19.23;4.30;;;13.60;42.10;;;;;;5017182;28;20428;-73
2022/11/25 12:46:46;;;;;;;15.85;5.00;;;13.40;43.00;;;;;;5018722;28;20931;-74
2022/11/25 12:49:20;;;;;;;15.73;4.20;;;13.30;43.00;;;;;;5011397;28;20404;-75
2022/11/25 12:52:05;;;;;;;18.27;4.47;;;13.00;44.40;;;;;;5010969;28;20465;-74
2022/11/25 12:54:52;;;;;;;19.23;4.20;;;12.90;46.60;;;;;;5013127;28;20408;-74
2022/11/25 12:57:23;;;;;;;16.93;4.40;;;12.70;44.90;;;;;;5014374;28;20487;-75
2022/11/25 13:00:11;;;;;;;18.83;3.90;;;12.50;46.00;;;;;;5015381;28;20424;-74
2022/11/25 13:02:55;;;;;;;15.23;4.00;;;12.40;47.00;;;;;;5011425;28;20478;-73
2022/11/25 13:05:40;;;;;;;16.73;4.88;;;12.40;47.70;;;;;;5012670;28;20397;-73